Time;durP1;ratioP1;P1;durP2;ratioP2;P2;SDS_P1;SDS_P2;PMS_P1;PMS_P2;Temp;Humidity;BMP_temperature;BMP_pressure;BME280_temperature;BME280_humidity;BME280_pressure;Samples;Min_cycle;Max_cycle;Signal;HPM_P1;HPM_P2
2021/06/20 00:00:10;;;;;;;3.40;3.13;;;;;;;22.66;63.37;100111.94;5115274;28;20233;-68
2021/06/20 00:02:37;;;;;;;3.60;3.30;;;;;;;22.65;63.32;100104.81;5108607;28;20217;-68
2021/06/20 00:05:05;;;;;;;4.75;3.72;;;;;;;22.62;63.28;100093.47;5108434;28;20203;-68
2021/06/20 00:07:33;;;;;;;4.20;3.67;;;;;;;22.58;63.67;100086.75;5108850;28;20597;-67
2021/06/20 00:10:01;;;;;;;4.45;3.88;;;;;;;22.54;63.96;100080.88;5109644;28;20226;-67
2021/06/20 00:12:28;;;;;;;4.53;3.70;;;;;;;22.50;64.28;100063.28;5109273;28;20213;-68
2021/06/20 00:14:54;;;;;;;4.60;4.13;;;;;;;22.47;64.53;100069.06;5105465;28;20195;-65
2021/06/20 00:17:21;;;;;;;4.25;3.88;;;;;;;22.44;64.59;100067.56;5108652;28;20221;-65
2021/06/20 00:19:47;;;;;;;4.40;4.00;;;;;;;22.44;64.78;100069.44;5110091;27;20607;-67
2021/06/20 00:22:14;;;;;;;4.95;4.50;;;;;;;22.43;64.93;100073.19;5112509;28;20199;-68
2021/06/20 00:24:42;;;;;;;4.00;3.63;;;;;;;22.41;64.94;100067.09;5112945;28;20665;-68
2021/06/20 00:27:09;;;;;;;4.03;3.72;;;;;;;22.39;64.89;100067.28;5115355;27;20199;-68
2021/06/20 00:29:36;;;;;;;3.83;3.50;;;;;;;22.38;64.84;100062.06;5112831;28;20606;-68
2021/06/20 00:32:03;;;;;;;4.43;3.40;;;;;;;22.37;64.77;100065.81;5112571;28;20202;-68
2021/06/20 00:34:29;;;;;;;3.88;3.50;;;;;;;22.36;64.76;100061.41;5112899;28;20204;-68
2021/06/20 00:36:56;;;;;;;4.07;3.47;;;;;;;22.37;64.51;100063.09;5112901;28;20199;-68
2021/06/20 00:39:22;;;;;;;3.72;3.42;;;;;;;22.39;64.56;100080.03;5113510;28;20223;-68
2021/06/20 00:41:50;;;;;;;4.50;3.75;;;;;;;22.40;64.10;100087.13;5111669;28;20204;-68
2021/06/20 00:44:16;;;;;;;4.38;3.60;;;;;;;22.39;64.26;100094.41;5113239;28;20203;-68
2021/06/20 00:46:43;;;;;;;9.00;3.88;;;;;;;22.39;64.32;100104.47;5113154;28;20210;-68
2021/06/20 00:49:09;;;;;;;9.55;3.70;;;;;;;22.32;64.41;100107.06;5113796;28;20222;-68
2021/06/20 00:51:36;;;;;;;6.53;3.40;;;;;;;22.24;64.53;100103.56;5112511;28;20210;-68
2021/06/20 00:54:03;;;;;;;5.47;3.93;;;;;;;22.16;65.11;100091.81;5113477;28;20206;-69
2021/06/20 00:56:29;;;;;;;7.90;4.10;;;;;;;22.07;65.71;100087.47;5109672;28;20226;-67
2021/06/20 00:59:02;;;;;;;5.67;4.33;;;;;;;22.04;66.01;100097.84;5112998;28;20230;-69
2021/06/20 01:01:30;;;;;;;5.43;4.00;;;;;;;22.02;66.31;100089.91;5113524;28;20198;-68
2021/06/20 01:03:57;;;;;;;4.57;3.53;;;;;;;22.03;66.41;100094.31;5107379;28;20206;-67
2021/06/20 01:06:24;;;;;;;5.03;4.23;;;;;;;22.05;66.28;100103.09;5110672;28;20209;-64
2021/06/20 01:08:50;;;;;;;4.90;3.90;;;;;;;22.09;66.23;100090.00;5111087;28;20702;-68
2021/06/20 01:11:17;;;;;;;4.33;3.97;;;;;;;22.12;66.10;100085.06;5113098;28;20222;-68
2021/06/20 01:13:44;;;;;;;4.85;3.85;;;;;;;22.14;65.85;100083.00;5112145;28;20201;-68
2021/06/20 01:16:12;;;;;;;6.22;4.07;;;;;;;22.15;66.02;100068.41;5112957;28;20199;-68
2021/06/20 01:18:39;;;;;;;5.75;3.85;;;;;;;22.14;66.20;100069.44;5113072;28;20253;-68
2021/06/20 01:21:08;;;;;;;5.68;3.42;;;;;;;22.14;66.27;100049.63;5107069;28;20211;-68
2021/06/20 01:23:36;;;;;;;4.95;3.58;;;;;;;22.12;66.31;100054.38;5110325;28;20616;-68
2021/06/20 01:26:03;;;;;;;4.78;3.60;;;;;;;22.11;66.15;100061.69;5105718;28;20680;-68
2021/06/20 01:28:39;;;;;;;6.65;4.00;;;;;;;22.11;66.19;100066.25;5109803;28;20250;-67
2021/06/20 01:31:11;;;;;;;4.95;3.10;;;;;;;22.12;65.98;100068.78;5112273;28;20203;-68
2021/06/20 01:33:37;;;;;;;4.03;3.38;;;;;;;22.14;65.54;100071.31;5111898;28;20200;-68
2021/06/20 01:36:05;;;;;;;4.20;3.53;;;;;;;22.12;65.29;100054.38;5112484;28;20230;-68
2021/06/20 01:38:31;;;;;;;6.82;3.83;;;;;;;22.11;65.09;100048.13;5111871;28;20596;-68
2021/06/20 01:40:59;;;;;;;8.30;4.20;;;;;;;22.08;65.49;100040.34;5112548;28;20196;-68
2021/06/20 01:43:26;;;;;;;10.77;3.80;;;;;;;22.01;65.62;100050.28;5111716;28;20296;-70
2021/06/20 01:45:52;;;;;;;9.55;4.07;;;;;;;21.97;66.09;100048.91;5112147;28;20677;-69
2021/06/20 01:48:19;;;;;;;6.30;3.35;;;;;;;21.94;66.24;100029.47;5109438;28;20230;-69
2021/06/20 01:50:45;;;;;;;5.97;3.63;;;;;;;21.92;65.99;100023.38;5112081;28;20266;-69
2021/06/20 01:53:14;;;;;;;4.63;3.28;;;;;;;21.88;65.92;100017.47;5111175;28;20622;-69
2021/06/20 01:55:42;;;;;;;5.82;3.20;;;;;;;21.85;65.65;100007.03;5111796;28;20214;-69
2021/06/20 01:58:13;;;;;;;5.18;3.40;;;;;;;21.84;65.59;100008.06;5112172;28;20676;-69
2021/06/20 02:00:41;;;;;;;6.28;3.13;;;;;;;21.85;65.63;100003.47;5111642;27;20200;-69
2021/06/20 02:03:09;;;;;;;5.60;3.42;;;;;;;21.83;65.63;99995.53;5115365;27;20655;-69
2021/06/20 02:05:36;;;;;;;5.60;3.22;;;;;;;21.81;65.51;99986.75;5122370;27;20213;-69
2021/06/20 02:08:03;;;;;;;5.40;2.97;;;;;;;21.79;65.22;99973.38;5111674;27;20199;-69
2021/06/20 02:10:30;;;;;;;5.47;3.13;;;;;;;21.79;65.34;99967.09;5113595;27;20223;-68
2021/06/20 02:12:57;;;;;;;4.82;3.15;;;;;;;21.76;65.26;99954.75;5103903;28;20205;-69
2021/06/20 02:15:25;;;;;;;4.97;3.17;;;;;;;21.77;65.00;99958.31;5111397;28;20588;-67
2021/06/20 02:17:51;;;;;;;4.17;2.90;;;;;;;21.78;65.01;99954.56;5111957;27;20199;-69
2021/06/20 02:20:21;;;;;;;3.92;2.80;;;;;;;21.79;65.02;99945.41;5111461;28;20204;-69
2021/06/20 02:22:50;;;;;;;4.43;3.17;;;;;;;21.82;64.76;99955.91;5112941;27;20199;-67
2021/06/20 02:25:17;;;;;;;4.72;3.03;;;;;;;21.84;64.65;99956.56;5111128;28;20203;-69
2021/06/20 02:27:46;;;;;;;7.47;3.33;;;;;;;21.86;64.50;99957.19;5111885;28;20206;-69
2021/06/20 02:30:14;;;;;;;3.65;3.00;;;;;;;21.87;64.47;99942.59;5111379;28;20604;-69
2021/06/20 02:32:42;;;;;;;3.33;2.90;;;;;;;21.91;64.39;99943.06;5110361;28;20679;-69
2021/06/20 02:35:12;;;;;;;3.93;2.83;;;;;;;21.94;64.40;99948.97;5106724;28;20206;-69
2021/06/20 02:37:39;;;;;;;5.10;2.88;;;;;;;21.95;64.66;99934.38;5111243;27;20206;-69
2021/06/20 02:40:08;;;;;;;3.10;2.80;;;;;;;22.00;64.58;99942.84;5110254;28;20230;-69
2021/06/20 02:42:34;;;;;;;6.72;3.22;;;;;;;22.01;64.68;99949.09;5110183;28;20695;-69
2021/06/20 02:45:01;;;;;;;3.63;2.92;;;;;;;22.05;65.04;99962.06;5110579;28;20660;-69
2021/06/20 02:47:28;;;;;;;3.00;2.70;;;;;;;22.09;65.31;100044.75;5111316;28;20217;-69
2021/06/20 02:49:56;;;;;;;4.07;3.10;;;;;;;22.14;65.33;100147.25;5110803;27;20229;-69
2021/06/20 02:52:22;;;;;;;4.68;3.10;;;;;;;22.17;65.79;100145.03;5110739;28;20202;-69
2021/06/20 02:54:52;;;;;;;7.88;2.80;;;;;;;22.19;66.40;100136.72;5110818;28;20302;-69
2021/06/20 02:57:19;;;;;;;5.15;2.17;;;;;;;22.22;66.97;100130.03;5110527;28;20227;-70
2021/06/20 02:59:46;;;;;;;9.15;2.00;;;;;;;22.21;67.22;100141.94;5110924;28;20610;-69
2021/06/20 03:02:13;;;;;;;7.07;2.05;;;;;;;22.19;67.63;100179.25;5109071;27;20199;-69
2021/06/20 03:04:40;;;;;;;5.75;1.42;;;;;;;22.15;68.00;100154.38;5115716;27;20205;-70
2021/06/20 03:07:08;;;;;;;4.60;1.40;;;;;;;22.07;68.36;100139.00;5113383;27;20207;-70
2021/06/20 03:09:35;;;;;;;3.42;1.50;;;;;;;22.00;68.70;100132.66;5112764;28;20228;-69
2021/06/20 03:12:02;;;;;;;4.07;1.37;;;;;;;21.91;69.03;100130.13;5110375;28;20224;-69
2021/06/20 03:14:29;;;;;;;4.93;1.45;;;;;;;21.85;69.60;100125.47;5116169;27;20675;-69
2021/06/20 03:16:57;;;;;;;5.38;1.27;;;;;;;21.77;70.19;100121.78;5102680;28;20668;-69
2021/06/20 03:19:24;;;;;;;3.58;1.27;;;;;;;21.74;70.38;100113.16;5111996;27;20592;-68
2021/06/20 03:21:51;;;;;;;3.27;1.30;;;;;;;21.68;70.72;100100.34;5116671;27;20587;-69
2021/06/20 03:24:19;;;;;;;3.25;1.20;;;;;;;21.62;71.23;100095.66;5109791;28;21286;-68
2021/06/20 03:26:46;;;;;;;5.18;1.67;;;;;;;21.57;71.49;100134.13;5106423;28;20202;-70
2021/06/20 03:29:12;;;;;;;5.38;1.60;;;;;;;21.54;71.92;100150.75;5110099;28;20236;-70
2021/06/20 03:31:39;;;;;;;5.07;1.77;;;;;;;21.46;72.44;100119.16;5109428;28;20237;-69
2021/06/20 03:34:05;;;;;;;9.07;2.27;;;;;;;21.43;72.99;100119.50;5110757;28;20205;-70
2021/06/20 03:36:32;;;;;;;7.27;2.30;;;;;;;21.42;73.51;100087.19;5109354;28;20209;-70
2021/06/20 03:38:58;;;;;;;7.37;2.50;;;;;;;21.37;73.75;100067.91;5110707;28;20224;-71
2021/06/20 03:41:26;;;;;;;7.50;2.70;;;;;;;21.33;74.24;100028.66;5109535;28;20201;-69
2021/06/20 03:43:53;;;;;;;6.10;2.13;;;;;;;21.28;74.57;100045.47;5109908;28;20680;-69
2021/06/20 03:46:20;;;;;;;7.90;2.93;;;;;;;21.20;74.71;100037.41;5109538;28;20204;-68
2021/06/20 03:48:46;;;;;;;9.13;2.63;;;;;;;21.12;74.92;100023.91;5110181;28;20275;-68
2021/06/20 03:51:13;;;;;;;9.33;2.30;;;;;;;21.07;75.34;100037.13;5110247;28;20224;-69
2021/06/20 03:53:40;;;;;;;6.73;2.33;;;;;;;21.03;75.71;100024.97;5112937;28;20686;-69
2021/06/20 03:56:07;;;;;;;7.60;2.53;;;;;;;21.00;75.94;100042.41;5114322;28;20298;-68
2021/06/20 03:58:35;;;;;;;8.27;3.10;;;;;;;20.98;76.26;100082.34;5113284;28;20221;-68
2021/06/20 04:01:02;;;;;;;7.03;2.17;;;;;;;20.98;76.01;100127.53;5118464;27;20201;-69
2021/06/20 04:03:28;;;;;;;6.50;2.47;;;;;;;20.95;76.21;100176.63;5111845;28;20205;-69
2021/06/20 04:05:55;;;;;;;14.00;3.50;;;;;;;20.92;76.04;100215.72;5114194;28;20659;-70
2021/06/20 04:08:21;;;;;;;12.40;3.83;;;;;;;20.87;76.49;100182.06;5113503;28;20227;-69
2021/06/20 04:10:48;;;;;;;13.80;4.53;;;;;;;20.82;76.87;100154.66;5122251;27;20223;-69
2021/06/20 04:13:14;;;;;;;11.33;4.33;;;;;;;20.76;77.21;100151.66;5117900;27;20211;-69
2021/06/20 04:15:43;;;;;;;11.23;3.83;;;;;;;20.74;77.76;100132.03;5120774;27;20218;-69
2021/06/20 04:18:10;;;;;;;10.87;4.03;;;;;;;20.70;78.00;100124.44;5117857;27;20294;-69
2021/06/20 04:20:36;;;;;;;13.40;4.30;;;;;;;20.69;78.46;100107.38;5113639;28;20208;-68
2021/06/20 04:23:03;;;;;;;9.50;3.70;;;;;;;20.67;78.53;100090.47;5113477;28;20698;-68
2021/06/20 04:25:29;;;;;;;12.97;3.80;;;;;;;20.64;78.37;100058.34;5113850;28;20582;-69
2021/06/20 04:27:56;;;;;;;10.93;3.70;;;;;;;20.63;78.47;100056.66;5106943;28;20207;-68
2021/06/20 04:30:24;;;;;;;17.17;3.60;;;;;;;20.64;78.73;100074.56;5114224;28;20212;-70
2021/06/20 04:32:53;;;;;;;8.67;3.17;;;;;;;20.65;79.24;100075.41;5111760;28;20207;-69
2021/06/20 04:35:21;;;;;;;12.27;4.03;;;;;;;20.67;79.24;100087.75;5113597;28;20207;-69
2021/06/20 04:37:49;;;;;;;12.20;3.60;;;;;;;20.67;79.19;100116.66;5109571;28;20202;-68
2021/06/20 04:40:18;;;;;;;11.10;3.83;;;;;;;20.66;79.34;100120.38;5109272;28;20230;-69
2021/06/20 04:42:47;;;;;;;13.00;4.00;;;;;;;20.62;79.14;100125.31;5112830;28;20662;-69
2021/06/20 04:45:14;;;;;;;12.40;3.37;;;;;;;20.59;79.41;100085.09;5115429;27;20206;-70
2021/06/20 04:47:42;;;;;;;13.47;4.63;;;;;;;20.55;79.60;100004.44;5115940;27;20671;-70
2021/06/20 04:50:12;;;;;;;9.10;3.60;;;;;;;20.53;79.83;99974.88;5122116;27;20271;-70
2021/06/20 04:52:42;;;;;;;8.80;3.43;;;;;;;20.50;79.80;99971.66;5114626;27;20226;-69
2021/06/20 04:55:10;;;;;;;7.67;3.07;;;;;;;20.46;80.24;99944.13;5116602;27;20209;-69
2021/06/20 04:57:37;;;;;;;6.23;2.70;;;;;;;20.44;80.37;99919.13;5123349;27;20224;-69
2021/06/20 05:00:06;;;;;;;8.70;3.23;;;;;;;20.41;80.31;99922.19;5112241;28;20623;-69
2021/06/20 05:02:33;;;;;;;6.50;2.73;;;;;;;20.39;80.52;99914.25;5112092;28;20205;-69
2021/06/20 05:05:00;;;;;;;6.00;3.23;;;;;;;20.38;80.63;99907.16;5111190;28;20198;-67
2021/06/20 05:07:28;;;;;;;7.37;3.13;;;;;;;20.38;81.04;99953.16;5113147;28;20210;-69
2021/06/20 05:09:55;;;;;;;6.33;3.10;;;;;;;20.38;81.34;99952.31;5120127;27;20223;-68
2021/06/20 05:12:21;;;;;;;8.03;3.00;;;;;;;20.39;81.94;99967.50;5111987;28;20230;-69
2021/06/20 05:14:48;;;;;;;7.57;3.50;;;;;;;20.40;81.94;99970.03;5113126;28;20206;-69
2021/06/20 05:17:16;;;;;;;8.03;3.03;;;;;;;20.38;81.98;99968.53;5112543;28;20202;-68
2021/06/20 05:19:43;;;;;;;7.03;3.10;;;;;;;20.37;81.97;99974.97;5112754;28;20230;-69
2021/06/20 05:22:11;;;;;;;9.73;3.70;;;;;;;20.35;82.25;99985.91;5111844;28;20221;-69
2021/06/20 05:24:40;;;;;;;9.63;3.60;;;;;;;20.37;82.53;99983.06;5112625;28;20592;-68
2021/06/20 05:27:07;;;;;;;9.03;3.40;;;;;;;20.38;82.59;99999.13;5112931;28;20206;-69
2021/06/20 05:29:34;;;;;;;8.83;3.50;;;;;;;20.43;82.72;100009.38;5112186;28;20236;-69
2021/06/20 05:32:01;;;;;;;12.00;3.30;;;;;;;20.47;82.92;100009.88;5111549;28;20222;-68
2021/06/20 05:34:27;;;;;;;9.23;3.37;;;;;;;20.53;83.00;100026.28;5112168;28;20206;-68
2021/06/20 05:36:54;;;;;;;7.13;3.80;;;;;;;20.58;83.00;100026.59;5112655;28;20203;-68
2021/06/20 05:39:20;;;;;;;8.23;3.70;;;;;;;20.64;83.30;100009.63;5112351;28;20245;-69
2021/06/20 05:41:48;;;;;;;7.63;3.73;;;;;;;20.73;83.62;100018.56;5110744;28;20209;-69
2021/06/20 05:44:15;;;;;;;5.20;3.40;;;;;;;20.79;83.78;100021.38;5117588;27;20286;-69
2021/06/20 05:46:41;;;;;;;7.27;3.53;;;;;;;20.88;83.83;100024.91;5119178;27;20210;-67
2021/06/20 05:49:08;;;;;;;6.83;3.50;;;;;;;20.94;83.74;100021.47;5112160;28;20622;-68
2021/06/20 05:51:34;;;;;;;7.97;3.97;;;;;;;20.99;83.70;100012.81;5110309;28;20230;-69
2021/06/20 05:54:01;;;;;;;6.00;3.27;;;;;;;21.02;83.74;100021.41;5112213;28;20217;-69
2021/06/20 05:56:28;;;;;;;7.97;3.50;;;;;;;21.08;83.73;100019.84;5128321;22;20707;-66
2021/06/20 05:58:56;;;;;;;6.73;3.60;;;;;;;21.12;83.60;100018.47;5110769;28;20211;-66
2021/06/20 06:01:22;;;;;;;6.77;3.60;;;;;;;21.17;83.44;100018.75;5107138;28;20669;-66
2021/06/20 06:03:48;;;;;;;7.90;4.10;;;;;;;21.23;83.39;100031.63;5108297;28;20209;-66
2021/06/20 06:06:15;;;;;;;5.10;3.40;;;;;;;21.32;83.25;100029.69;5111036;28;20604;-66
2021/06/20 06:08:41;;;;;;;7.40;3.90;;;;;;;21.38;83.36;100018.97;5111227;28;20207;-66
2021/06/20 06:11:08;;;;;;;6.07;4.03;;;;;;;21.48;83.48;100033.13;5111588;28;20222;-66
2021/06/20 06:13:34;;;;;;;8.07;4.00;;;;;;;21.61;83.49;100028.94;5111135;28;20213;-66
2021/06/20 06:16:02;;;;;;;7.47;4.13;;;;;;;21.75;83.29;100025.41;5106051;28;20224;-66
2021/06/20 06:18:29;;;;;;;7.50;3.80;;;;;;;21.86;83.08;100027.66;5111316;28;20215;-66
2021/06/20 06:20:56;;;;;;;5.70;3.87;;;;;;;22.01;83.21;100034.00;5107164;28;20203;-66
2021/06/20 06:23:22;;;;;;;5.40;3.70;;;;;;;22.16;82.89;100031.28;5108664;28;20207;-66
2021/06/20 06:25:49;;;;;;;8.43;4.10;;;;;;;22.29;82.57;100025.19;5106559;28;20233;-66
2021/06/20 06:28:16;;;;;;;7.50;4.00;;;;;;;22.47;82.27;100022.94;5111550;28;20237;-66
2021/06/20 06:30:42;;;;;;;6.47;4.10;;;;;;;22.62;81.42;100029.19;5110518;28;20203;-66
2021/06/20 06:33:10;;;;;;;6.65;3.53;;;;;;;22.76;80.98;100036.44;5109228;28;20223;-66
2021/06/20 06:35:37;;;;;;;7.55;4.30;;;;;;;22.93;80.46;100030.84;5111764;28;20230;-66
2021/06/20 06:38:04;;;;;;;8.60;3.92;;;;;;;23.11;79.81;100028.53;5110287;28;20686;-66
2021/06/20 06:40:31;;;;;;;7.10;3.97;;;;;;;23.25;78.83;100033.06;5111259;28;20204;-67
2021/06/20 06:42:58;;;;;;;8.70;3.97;;;;;;;23.38;77.58;100029.63;5110534;28;20287;-67
2021/06/20 06:45:25;;;;;;;6.63;3.88;;;;;;;23.51;76.82;100030.63;5111700;28;20778;-68
2021/06/20 06:47:51;;;;;;;8.25;4.00;;;;;;;23.65;75.93;100041.59;5113868;28;20656;-66
2021/06/20 06:50:19;;;;;;;10.00;3.78;;;;;;;23.84;75.67;100027.31;5115477;27;20194;-67
2021/06/20 06:52:47;;;;;;;7.07;3.60;;;;;;;24.04;75.42;100030.19;5111358;28;20223;-67
2021/06/20 06:55:14;;;;;;;9.13;3.63;;;;;;;24.19;73.50;100031.72;5112132;28;20238;-67
2021/06/20 06:57:41;;;;;;;8.07;3.38;;;;;;;24.33;72.53;100040.03;5112726;28;20233;-67
2021/06/20 07:00:10;;;;;;;7.55;4.03;;;;;;;24.42;71.58;100039.66;5106994;28;20323;-67
2021/06/20 07:02:37;;;;;;;6.57;3.42;;;;;;;24.51;70.36;100035.72;5109899;28;20675;-67
2021/06/20 07:05:04;;;;;;;8.07;3.50;;;;;;;24.61;69.48;100032.63;5107713;28;20223;-68
2021/06/20 07:07:33;;;;;;;8.55;3.08;;;;;;;24.71;68.89;100032.25;5109105;28;20681;-66
2021/06/20 07:10:00;;;;;;;7.20;3.30;;;;;;;24.78;67.66;100014.88;5107904;28;20218;-66
2021/06/20 07:12:28;;;;;;;6.10;2.72;;;;;;;24.85;66.16;100034.81;5107519;28;20219;-66
2021/06/20 07:14:55;;;;;;;8.05;2.95;;;;;;;24.87;65.26;100030.00;5110748;28;20228;-68
2021/06/20 07:17:21;;;;;;;4.40;2.70;;;;;;;24.93;65.00;100048.25;5107394;28;20284;-67
2021/06/20 07:19:48;;;;;;;6.82;3.17;;;;;;;25.03;64.53;100047.91;5107895;28;20607;-67
2021/06/20 07:22:15;;;;;;;7.38;3.20;;;;;;;25.14;63.70;100060.91;5108607;28;20207;-68
2021/06/20 07:24:43;;;;;;;6.13;3.20;;;;;;;25.27;63.38;100060.09;5110366;28;20207;-68
2021/06/20 07:27:11;;;;;;;4.72;3.15;;;;;;;25.37;62.99;100055.09;5102328;28;20207;-68
2021/06/20 07:29:38;;;;;;;4.70;2.90;;;;;;;25.51;62.27;100062.25;5110541;28;20296;-68
2021/06/20 07:32:05;;;;;;;5.50;3.20;;;;;;;25.62;61.59;100060.78;5107041;28;20731;-67
2021/06/20 07:34:31;;;;;;;6.63;2.97;;;;;;;25.77;61.62;100071.53;5109505;28;20214;-67
2021/06/20 07:36:58;;;;;;;6.68;3.03;;;;;;;25.95;62.21;100071.72;5113269;28;20232;-66
2021/06/20 07:39:25;;;;;;;6.07;2.95;;;;;;;26.09;60.73;100084.31;5107760;28;20298;-66
2021/06/20 07:41:53;;;;;;;6.65;2.90;;;;;;;26.14;59.57;100083.69;5109955;28;20196;-67
2021/06/20 07:44:19;;;;;;;4.93;3.05;;;;;;;26.22;59.76;100086.19;5110367;28;20287;-67
2021/06/20 07:46:46;;;;;;;4.72;2.75;;;;;;;26.31;59.50;100079.47;5107606;28;20227;-67
2021/06/20 07:49:12;;;;;;;7.05;3.17;;;;;;;26.43;59.22;100076.94;5107958;28;20195;-67
2021/06/20 07:51:39;;;;;;;4.13;2.72;;;;;;;26.53;58.88;100075.41;5104632;28;20226;-67
2021/06/20 07:54:06;;;;;;;4.70;2.70;;;;;;;26.63;57.92;100084.00;5108648;28;20217;-67
2021/06/20 07:56:32;;;;;;;6.60;2.97;;;;;;;26.67;57.79;100073.50;5108078;28;20227;-66
2021/06/20 07:59:00;;;;;;;6.78;3.40;;;;;;;26.79;57.16;100081.84;5109692;28;20199;-67
2021/06/20 08:01:28;;;;;;;5.65;2.78;;;;;;;26.91;57.15;100071.91;5107115;28;20254;-67
2021/06/20 08:03:55;;;;;;;7.30;3.72;;;;;;;27.04;57.66;100074.63;5106152;28;20294;-68
2021/06/20 08:06:22;;;;;;;8.75;2.75;;;;;;;27.15;56.96;100068.47;5107297;28;20223;-67
2021/06/20 08:08:54;;;;;;;5.82;3.00;;;;;;;27.28;57.18;100081.22;5105661;28;20735;-67
2021/06/20 08:11:21;;;;;;;4.07;2.65;;;;;;;27.41;55.54;100080.31;5109443;28;20294;-68
2021/06/20 08:13:47;;;;;;;4.25;2.20;;;;;;;27.46;54.60;100089.50;5108631;28;20202;-68
2021/06/20 08:16:15;;;;;;;3.67;2.22;;;;;;;27.54;54.93;100086.53;5110241;28;20237;-66
2021/06/20 08:18:42;;;;;;;5.45;2.88;;;;;;;27.64;54.60;100080.59;5108904;28;20211;-69
2021/06/20 08:21:08;;;;;;;4.75;2.80;;;;;;;27.71;54.25;100080.53;5100758;28;20257;-67
2021/06/20 08:23:35;;;;;;;4.65;3.08;;;;;;;27.71;53.62;100086.00;5107472;28;20191;-68
2021/06/20 08:26:02;;;;;;;5.18;2.70;;;;;;;27.72;53.75;100087.69;5108339;28;20223;-68
2021/06/20 08:28:28;;;;;;;6.70;3.03;;;;;;;27.74;53.37;100097.34;5108305;28;20664;-68
2021/06/20 08:30:55;;;;;;;5.32;3.20;;;;;;;27.79;53.60;100100.25;5106922;28;20302;-68
2021/06/20 08:33:23;;;;;;;7.43;2.90;;;;;;;27.86;52.87;100108.41;5108887;28;20223;-67
2021/06/20 08:35:49;;;;;;;6.97;3.20;;;;;;;27.88;52.73;100115.34;5109201;28;20607;-67
2021/06/20 08:38:16;;;;;;;4.20;2.22;;;;;;;27.94;52.14;100114.47;5109828;28;20211;-67
2021/06/20 08:40:43;;;;;;;4.68;2.78;;;;;;;27.96;51.78;100117.78;5111056;28;20207;-68
2021/06/20 08:43:10;;;;;;;5.18;2.78;;;;;;;27.98;51.18;100114.81;5111319;28;20195;-68
2021/06/20 08:45:37;;;;;;;5.30;2.90;;;;;;;28.00;50.81;100119.03;5110488;28;20217;-67
2021/06/20 08:48:04;;;;;;;3.38;2.60;;;;;;;28.02;50.54;100105.13;5107115;28;20691;-68
2021/06/20 08:50:32;;;;;;;5.20;2.90;;;;;;;28.16;50.52;100120.34;5111904;28;20221;-67
2021/06/20 08:52:59;;;;;;;5.00;2.50;;;;;;;28.15;49.27;100109.63;5112181;28;20226;-69
2021/06/20 08:55:26;;;;;;;5.60;2.58;;;;;;;28.12;49.35;100127.38;5110319;28;20239;-68
2021/06/20 08:57:59;;;;;;;5.53;2.70;;;;;;;28.12;49.06;100110.94;5112002;28;20215;-69
2021/06/20 09:00:26;;;;;;;5.20;2.40;;;;;;;28.13;49.63;100112.59;5110328;28;20200;-68
2021/06/20 09:02:58;;;;;;;4.50;3.08;;;;;;;28.22;49.52;100094.00;5111530;28;20211;-68
2021/06/20 09:05:24;;;;;;;6.32;2.70;;;;;;;28.26;49.21;100106.19;5103282;28;20227;-68
2021/06/20 09:07:52;;;;;;;6.07;2.72;;;;;;;28.31;49.15;100109.06;5110595;28;20207;-66
2021/06/20 09:10:21;;;;;;;3.78;2.47;;;;;;;28.37;48.95;100108.19;5108801;28;20206;-67
2021/06/20 09:12:50;;;;;;;5.03;2.67;;;;;;;28.46;50.14;100106.84;5108474;28;20226;-67
2021/06/20 09:15:18;;;;;;;5.05;2.80;;;;;;;28.58;49.50;100109.66;5112280;28;20226;-66
2021/06/20 09:17:53;;;;;;;3.80;2.78;;;;;;;28.66;48.31;100109.38;5112067;28;20675;-67
2021/06/20 09:20:31;;;;;;;4.15;2.80;;;;;;;28.69;47.28;100117.94;5112567;28;20203;-67
2021/06/20 09:23:00;;;;;;;2.53;2.33;;;;;;;28.73;47.14;100106.53;5110130;28;20201;-68
2021/06/20 09:25:28;;;;;;;4.22;2.75;;;;;;;28.78;46.67;100103.94;5103086;28;20227;-67
2021/06/20 09:27:56;;;;;;;4.22;2.22;;;;;;;28.84;45.97;100103.88;5105628;28;20207;-69
2021/06/20 09:30:25;;;;;;;4.68;2.30;;;;;;;28.87;45.48;100108.91;5111704;28;20207;-69
2021/06/20 09:32:56;;;;;;;3.45;2.70;;;;;;;28.92;45.66;100114.56;5109154;28;20715;-68
2021/06/20 09:35:24;;;;;;;2.88;2.38;;;;;;;28.96;45.40;100110.28;5109258;28;20235;-69
2021/06/20 09:37:51;;;;;;;2.92;2.35;;;;;;;29.06;45.22;100117.97;5110532;28;20680;-68
2021/06/20 09:40:21;;;;;;;4.65;2.50;;;;;;;29.10;45.01;100119.19;5111185;28;20211;-68
2021/06/20 09:42:48;;;;;;;3.40;2.67;;;;;;;29.15;44.97;100123.97;5109615;28;20218;-68
2021/06/20 09:45:26;;;;;;;3.10;2.60;;;;;;;29.16;45.04;100107.28;5109529;28;20235;-67
2021/06/20 09:47:53;;;;;;;4.18;2.40;;;;;;;29.23;45.71;100107.19;5111504;28;20679;-67
2021/06/20 09:50:33;;;;;;;3.22;2.38;;;;;;;29.31;45.93;100109.63;5110661;28;20238;-67
2021/06/20 09:53:00;;;;;;;4.20;2.70;;;;;;;29.36;45.64;100110.59;5110110;28;20211;-67
2021/06/20 09:55:28;;;;;;;6.30;3.10;;;;;;;29.46;45.64;100111.97;5108517;28;20236;-68
2021/06/20 09:58:00;;;;;;;4.10;2.85;;;;;;;29.50;45.69;100107.69;5110188;28;20208;-68
2021/06/20 10:00:27;;;;;;;4.15;2.80;;;;;;;29.53;45.35;100119.03;5110127;28;20218;-68
2021/06/20 10:02:53;;;;;;;3.85;2.70;;;;;;;29.53;45.71;100113.56;5110190;28;20195;-68
2021/06/20 10:05:20;;;;;;;4.57;2.80;;;;;;;29.58;45.29;100115.56;5107362;28;20229;-68
2021/06/20 10:07:46;;;;;;;5.75;2.83;;;;;;;29.56;45.38;100113.06;5110912;28;20660;-68
2021/06/20 10:10:13;;;;;;;4.07;2.80;;;;;;;29.60;45.22;100102.47;5110397;28;20202;-68
2021/06/20 10:12:41;;;;;;;5.55;3.05;;;;;;;29.67;45.62;100104.03;5107070;27;20591;-68
2021/06/20 10:15:13;;;;;;;4.18;2.72;;;;;;;29.85;45.39;100107.78;5109049;27;20230;-68
2021/06/20 10:17:42;;;;;;;3.88;3.22;;;;;;;29.94;45.58;100090.72;5109549;28;20200;-68
2021/06/20 10:20:12;;;;;;;5.70;2.42;;;;;;;30.02;45.54;100090.41;5110538;28;20199;-68
2021/06/20 10:22:41;;;;;;;4.07;3.00;;;;;;;30.02;44.02;100103.31;5109849;28;20199;-68
2021/06/20 10:25:09;;;;;;;3.05;2.30;;;;;;;29.95;42.61;100097.03;5110244;28;20595;-67
2021/06/20 10:27:38;;;;;;;3.45;2.53;;;;;;;29.90;42.42;100096.94;5108821;28;20207;-67
2021/06/20 10:30:09;;;;;;;4.15;2.35;;;;;;;29.89;41.61;100092.50;5109770;28;20195;-67
2021/06/20 10:32:38;;;;;;;3.33;1.80;;;;;;;29.87;41.26;100086.41;5109355;28;20302;-68
2021/06/20 10:35:09;;;;;;;4.47;2.03;;;;;;;29.83;40.83;100085.22;5107891;28;20227;-69
2021/06/20 10:37:39;;;;;;;2.90;1.95;;;;;;;29.86;41.28;100079.25;5109790;28;20587;-68
2021/06/20 10:40:18;;;;;;;4.15;1.92;;;;;;;29.92;40.38;100081.88;5109526;28;20206;-68
2021/06/20 10:42:44;;;;;;;2.70;2.05;;;;;;;29.95;40.56;100077.81;5109717;28;20191;-68
2021/06/20 10:45:12;;;;;;;3.30;1.95;;;;;;;30.01;39.92;100090.63;5107572;28;20238;-69
2021/06/20 10:47:41;;;;;;;3.45;2.08;;;;;;;30.00;40.40;100083.47;5110413;28;20199;-68
2021/06/20 10:50:10;;;;;;;4.15;1.83;;;;;;;30.02;39.92;100090.41;5110379;28;20302;-68
2021/06/20 10:52:37;;;;;;;2.83;1.80;;;;;;;30.02;39.27;100092.31;5120410;27;20260;-68
2021/06/20 10:55:10;;;;;;;4.45;2.33;;;;;;;30.01;40.07;100085.97;5113327;27;20522;-66
2021/06/20 10:57:47;;;;;;;5.18;2.03;;;;;;;30.06;40.24;100085.28;5111318;28;20260;-68
2021/06/20 11:00:25;;;;;;;3.78;2.35;;;;;;;30.16;40.15;100082.75;5110218;28;20199;-68
2021/06/20 11:02:54;;;;;;;3.45;2.20;;;;;;;30.28;40.07;100083.59;5105197;28;20556;-67
2021/06/20 11:05:22;;;;;;;4.05;2.20;;;;;;;30.38;39.45;100086.59;5106879;28;20235;-73
2021/06/20 11:07:49;;;;;;;5.25;2.05;;;;;;;30.45;39.74;100078.22;5107091;28;20203;-67
2021/06/20 11:10:22;;;;;;;2.88;1.98;;;;;;;30.54;40.49;100078.69;5110857;28;20203;-68
2021/06/20 11:12:54;;;;;;;3.83;2.13;;;;;;;30.62;38.98;100089.34;5109792;28;20203;-68
2021/06/20 11:15:27;;;;;;;3.42;2.20;;;;;;;30.63;39.52;100088.28;5109090;28;20234;-69
2021/06/20 11:18:04;;;;;;;2.72;2.20;;;;;;;30.60;38.92;100086.00;5111120;28;20206;-66
2021/06/20 11:20:31;;;;;;;3.25;1.83;;;;;;;30.62;38.37;100089.34;5110010;28;20214;-68
2021/06/20 11:22:58;;;;;;;3.05;2.00;;;;;;;30.57;38.08;100075.47;5109783;28;20292;-67
2021/06/20 11:25:25;;;;;;;4.53;2.13;;;;;;;30.60;38.83;100078.59;5109470;28;20219;-67
2021/06/20 11:27:52;;;;;;;3.67;2.08;;;;;;;30.61;39.03;100091.25;5110001;28;20195;-66